sensor_id;sensor_type;location;lat;lon;timestamp;pressure;altitude;pressure_sealevel;temperature;humidity
75497;BME280;64074;47.540;19.072;2023-03-01T00:00:38;101654.63;;;6.64;52.42
75497;BME280;64074;47.540;19.072;2023-03-01T00:03:42;101656.25;;;6.77;52.03
75497;BME280;64074;47.540;19.072;2023-03-01T00:06:46;101653.66;;;6.82;52.43
75497;BME280;64074;47.540;19.072;2023-03-01T00:09:49;101658.00;;;6.83;52.05
75497;BME280;64074;47.540;19.072;2023-03-01T00:12:53;101654.72;;;6.81;52.56
75497;BME280;64074;47.540;19.072;2023-03-01T00:15:56;101649.56;;;6.79;52.40
75497;BME280;64074;47.540;19.072;2023-03-01T00:18:58;101656.50;;;6.75;51.96
75497;BME280;64074;47.540;19.072;2023-03-01T00:22:02;101653.34;;;6.67;52.30
75497;BME280;64074;47.540;19.072;2023-03-01T00:25:05;101656.75;;;6.74;52.33
75497;BME280;64074;47.540;19.072;2023-03-01T00:28:08;101653.19;;;6.85;52.32
75497;BME280;64074;47.540;19.072;2023-03-01T00:31:15;101656.50;;;6.75;52.08
75497;BME280;64074;47.540;19.072;2023-03-01T00:34:19;101654.75;;;6.69;51.43
75497;BME280;64074;47.540;19.072;2023-03-01T00:37:23;101661.91;;;6.64;51.93
75497;BME280;64074;47.540;19.072;2023-03-01T00:40:28;101662.25;;;6.67;51.52
75497;BME280;64074;47.540;19.072;2023-03-01T00:43:31;101663.25;;;6.90;51.34
75497;BME280;64074;47.540;19.072;2023-03-01T00:46:38;101663.25;;;6.90;51.72
75497;BME280;64074;47.540;19.072;2023-03-01T00:49:42;101658.91;;;6.89;51.17
75497;BME280;64074;47.540;19.072;2023-03-01T00:52:45;101664.44;;;6.82;51.53
75497;BME280;64074;47.540;19.072;2023-03-01T00:55:47;101665.38;;;6.88;51.33
75497;BME280;64074;47.540;19.072;2023-03-01T00:58:52;101669.94;;;6.87;51.24
75497;BME280;64074;47.540;19.072;2023-03-01T01:01:55;101660.91;;;6.93;50.90
75497;BME280;64074;47.540;19.072;2023-03-01T01:04:58;101663.59;;;6.93;51.55
75497;BME280;64074;47.540;19.072;2023-03-01T01:08:01;101661.28;;;6.85;52.40
75497;BME280;64074;47.540;19.072;2023-03-01T01:11:09;101667.47;;;6.97;52.19
75497;BME280;64074;47.540;19.072;2023-03-01T01:14:11;101659.72;;;7.01;52.45
75497;BME280;64074;47.540;19.072;2023-03-01T01:17:14;101655.50;;;6.93;51.60
75497;BME280;64074;47.540;19.072;2023-03-01T01:20:17;101653.00;;;6.75;51.49
75497;BME280;64074;47.540;19.072;2023-03-01T01:23:20;101645.38;;;6.72;52.14
75497;BME280;64074;47.540;19.072;2023-03-01T01:26:28;101641.63;;;6.61;53.42
75497;BME280;64074;47.540;19.072;2023-03-01T01:29:32;101639.91;;;6.55;53.25
75497;BME280;64074;47.540;19.072;2023-03-01T01:32:36;101628.78;;;6.52;53.59
75497;BME280;64074;47.540;19.072;2023-03-01T01:35:39;101623.97;;;6.54;53.63
75497;BME280;64074;47.540;19.072;2023-03-01T01:38:42;101609.34;;;6.50;53.48
75497;BME280;64074;47.540;19.072;2023-03-01T01:41:46;101605.34;;;6.52;53.87
75497;BME280;64074;47.540;19.072;2023-03-01T01:45:24;101610.63;;;6.35;53.31
75497;BME280;64074;47.540;19.072;2023-03-01T01:48:43;101610.72;;;6.40;53.69
75497;BME280;64074;47.540;19.072;2023-03-01T01:51:50;101610.97;;;6.51;53.38
75497;BME280;64074;47.540;19.072;2023-03-01T01:55:03;101605.25;;;6.47;53.96
75497;BME280;64074;47.540;19.072;2023-03-01T01:58:09;101602.00;;;6.22;54.72
75497;BME280;64074;47.540;19.072;2023-03-01T02:01:14;101597.59;;;6.56;53.95
75497;BME280;64074;47.540;19.072;2023-03-01T02:04:17;101601.06;;;6.68;53.83
75497;BME280;64074;47.540;19.072;2023-03-01T02:07:22;101598.84;;;6.65;54.16
75497;BME280;64074;47.540;19.072;2023-03-01T02:10:26;101600.00;;;6.69;53.67
75497;BME280;64074;47.540;19.072;2023-03-01T02:13:31;101595.81;;;6.73;53.92
75497;BME280;64074;47.540;19.072;2023-03-01T02:16:34;101602.94;;;6.67;54.13
75497;BME280;64074;47.540;19.072;2023-03-01T02:23:11;101596.75;;;6.67;54.16
75497;BME280;64074;47.540;19.072;2023-03-01T02:26:23;101583.63;;;6.70;53.39
75497;BME280;64074;47.540;19.072;2023-03-01T02:29:28;101585.38;;;6.76;53.61
75497;BME280;64074;47.540;19.072;2023-03-01T02:32:30;101583.50;;;6.77;53.87
75497;BME280;64074;47.540;19.072;2023-03-01T02:35:37;101578.38;;;6.64;54.13
75497;BME280;64074;47.540;19.072;2023-03-01T02:38:41;101577.28;;;6.76;53.96
75497;BME280;64074;47.540;19.072;2023-03-01T02:41:51;101574.72;;;6.70;53.76
75497;BME280;64074;47.540;19.072;2023-03-01T02:44:55;101568.53;;;6.58;54.26
75497;BME280;64074;47.540;19.072;2023-03-01T02:47:59;101563.47;;;6.73;54.63
75497;BME280;64074;47.540;19.072;2023-03-01T02:51:09;101560.53;;;6.74;54.04
75497;BME280;64074;47.540;19.072;2023-03-01T02:57:25;101562.06;;;6.70;54.51
75497;BME280;64074;47.540;19.072;2023-03-01T03:00:42;101552.72;;;6.61;55.29
75497;BME280;64074;47.540;19.072;2023-03-01T03:03:51;101557.19;;;6.56;54.77
75497;BME280;64074;47.540;19.072;2023-03-01T03:06:54;101561.31;;;6.46;55.86
75497;BME280;64074;47.540;19.072;2023-03-01T03:09:56;101550.78;;;6.45;56.09
75497;BME280;64074;47.540;19.072;2023-03-01T03:13:03;101553.25;;;6.46;55.95
75497;BME280;64074;47.540;19.072;2023-03-01T03:16:06;101559.31;;;6.42;56.07
75497;BME280;64074;47.540;19.072;2023-03-01T03:19:09;101558.28;;;6.31;56.38
75497;BME280;64074;47.540;19.072;2023-03-01T03:22:12;101550.44;;;6.18;56.42
75497;BME280;64074;47.540;19.072;2023-03-01T03:25:16;101545.41;;;6.45;56.08
75497;BME280;64074;47.540;19.072;2023-03-01T03:28:18;101548.97;;;6.62;55.45
75497;BME280;64074;47.540;19.072;2023-03-01T03:31:22;101550.03;;;6.61;55.48
75497;BME280;64074;47.540;19.072;2023-03-01T03:34:25;101547.56;;;6.60;54.98
75497;BME280;64074;47.540;19.072;2023-03-01T03:37:28;101541.25;;;6.54;55.56
75497;BME280;64074;47.540;19.072;2023-03-01T03:41:05;101545.03;;;6.41;55.95
75497;BME280;64074;47.540;19.072;2023-03-01T03:44:09;101551.63;;;6.34;56.15
75497;BME280;64074;47.540;19.072;2023-03-01T03:47:12;101542.22;;;6.48;55.31
75497;BME280;64074;47.540;19.072;2023-03-01T03:50:17;101539.63;;;6.41;55.54
75497;BME280;64074;47.540;19.072;2023-03-01T03:53:22;101542.56;;;6.52;55.33
75497;BME280;64074;47.540;19.072;2023-03-01T03:56:26;101553.25;;;6.46;55.33
75497;BME280;64074;47.540;19.072;2023-03-01T03:59:30;101548.91;;;6.45;55.03
75497;BME280;64074;47.540;19.072;2023-03-01T04:02:32;101553.00;;;6.48;54.88
75497;BME280;64074;47.540;19.072;2023-03-01T04:05:36;101550.75;;;6.57;54.72
75497;BME280;64074;47.540;19.072;2023-03-01T04:08:40;101556.13;;;6.57;54.70
75497;BME280;64074;47.540;19.072;2023-03-01T04:11:43;101555.06;;;6.58;54.28
75497;BME280;64074;47.540;19.072;2023-03-01T04:14:47;101556.09;;;6.68;54.32
75497;BME280;64074;47.540;19.072;2023-03-01T04:17:52;101553.19;;;6.70;54.47
75497;BME280;64074;47.540;19.072;2023-03-01T04:20:56;101560.22;;;6.59;54.17
75497;BME280;64074;47.540;19.072;2023-03-01T04:23:58;101553.91;;;6.54;54.77
75497;BME280;64074;47.540;19.072;2023-03-01T04:27:01;101557.38;;;6.66;54.51
75497;BME280;64074;47.540;19.072;2023-03-01T04:30:05;101561.63;;;6.62;53.46
75497;BME280;64074;47.540;19.072;2023-03-01T04:33:10;101556.03;;;6.40;54.09
75497;BME280;64074;47.540;19.072;2023-03-01T04:36:15;101553.81;;;6.48;54.15
75497;BME280;64074;47.540;19.072;2023-03-01T04:39:18;101560.50;;;6.46;54.21
75497;BME280;64074;47.540;19.072;2023-03-01T04:42:22;101560.94;;;6.43;54.28
75497;BME280;64074;47.540;19.072;2023-03-01T04:45:25;101549.59;;;6.53;54.17
75497;BME280;64074;47.540;19.072;2023-03-01T04:48:28;101550.53;;;6.46;53.83
75497;BME280;64074;47.540;19.072;2023-03-01T04:51:31;101545.41;;;6.45;54.10
75497;BME280;64074;47.540;19.072;2023-03-01T04:54:37;101543.63;;;6.51;54.31
75497;BME280;64074;47.540;19.072;2023-03-01T04:57:39;101536.69;;;6.55;54.39
75497;BME280;64074;47.540;19.072;2023-03-01T05:00:44;101529.75;;;6.59;54.52
75497;BME280;64074;47.540;19.072;2023-03-01T05:03:49;101534.47;;;6.52;53.76
75497;BME280;64074;47.540;19.072;2023-03-01T05:06:52;101542.25;;;6.36;54.46
75497;BME280;64074;47.540;19.072;2023-03-01T05:09:56;101541.13;;;6.61;53.97
75497;BME280;64074;47.540;19.072;2023-03-01T05:12:59;101539.38;;;6.55;54.28
75497;BME280;64074;47.540;19.072;2023-03-01T05:16:04;101536.22;;;6.58;54.23
75497;BME280;64074;47.540;19.072;2023-03-01T05:19:06;101538.81;;;6.53;54.79
75497;BME280;64074;47.540;19.072;2023-03-01T05:22:18;101532.38;;;6.42;54.59
75497;BME280;64074;47.540;19.072;2023-03-01T05:25:21;101542.22;;;6.48;54.89
75497;BME280;64074;47.540;19.072;2023-03-01T05:28:25;101535.53;;;6.51;54.55
75497;BME280;64074;47.540;19.072;2023-03-01T05:31:28;101539.47;;;6.60;54.35
75497;BME280;64074;47.540;19.072;2023-03-01T05:34:34;101539.78;;;6.46;55.17
75497;BME280;64074;47.540;19.072;2023-03-01T05:37:40;101547.94;;;6.52;54.78
75497;BME280;64074;47.540;19.072;2023-03-01T05:40:45;101547.03;;;6.46;55.00
75497;BME280;64074;47.540;19.072;2023-03-01T05:43:49;101549.72;;;6.46;55.63
75497;BME280;64074;47.540;19.072;2023-03-01T05:46:52;101552.28;;;6.53;55.30
75497;BME280;64074;47.540;19.072;2023-03-01T05:49:55;101553.34;;;6.52;55.71
75497;BME280;64074;47.540;19.072;2023-03-01T05:53:13;101558.06;;;6.44;55.13
75497;BME280;64074;47.540;19.072;2023-03-01T05:56:15;101560.84;;;6.50;55.47
75497;BME280;64074;47.540;19.072;2023-03-01T05:59:18;101554.50;;;6.56;55.26
75497;BME280;64074;47.540;19.072;2023-03-01T06:02:21;101552.72;;;6.61;54.92
75497;BME280;64074;47.540;19.072;2023-03-01T06:05:24;101564.66;;;6.65;54.42
75497;BME280;64074;47.540;19.072;2023-03-01T06:08:27;101561.84;;;6.60;55.05
75497;BME280;64074;47.540;19.072;2023-03-01T06:11:30;101564.88;;;6.64;54.49
75497;BME280;64074;47.540;19.072;2023-03-01T06:14:33;101568.88;;;6.73;54.45
75497;BME280;64074;47.540;19.072;2023-03-01T06:17:38;101566.41;;;6.71;54.51
75497;BME280;64074;47.540;19.072;2023-03-01T06:20:44;101564.53;;;6.72;54.61
75497;BME280;64074;47.540;19.072;2023-03-01T06:23:47;101566.84;;;6.68;54.30
75497;BME280;64074;47.540;19.072;2023-03-01T06:26:52;101565.72;;;6.64;54.65
75497;BME280;64074;47.540;19.072;2023-03-01T06:29:55;101565.09;;;6.74;54.38
75497;BME280;64074;47.540;19.072;2023-03-01T06:32:58;101569.69;;;6.73;54.58
75497;BME280;64074;47.540;19.072;2023-03-01T06:36:05;101568.00;;;6.84;54.24
75497;BME280;64074;47.540;19.072;2023-03-01T06:39:12;101563.09;;;6.81;53.90
75497;BME280;64074;47.540;19.072;2023-03-01T06:42:54;101570.94;;;6.83;53.98
75497;BME280;64074;47.540;19.072;2023-03-01T06:46:05;101577.97;;;6.84;53.92
75497;BME280;64074;47.540;19.072;2023-03-01T06:49:10;101574.69;;;6.82;54.03
75497;BME280;64074;47.540;19.072;2023-03-01T06:52:13;101583.41;;;7.00;53.39
75497;BME280;64074;47.540;19.072;2023-03-01T06:55:20;101586.69;;;7.02;53.39
75497;BME280;64074;47.540;19.072;2023-03-01T06:58:43;101590.09;;;6.98;53.14
75497;BME280;64074;47.540;19.072;2023-03-01T07:02:26;101590.38;;;6.85;53.52
75497;BME280;64074;47.540;19.072;2023-03-01T07:05:29;101593.28;;;6.95;53.27
75497;BME280;64074;47.540;19.072;2023-03-01T07:08:32;101584.06;;;7.07;52.76
75497;BME280;64074;47.540;19.072;2023-03-01T07:11:35;101583.09;;;7.14;52.89
75497;BME280;64074;47.540;19.072;2023-03-01T07:14:38;101580.75;;;7.17;52.65
75497;BME280;64074;47.540;19.072;2023-03-01T07:17:41;101578.84;;;7.18;52.25
75497;BME280;64074;47.540;19.072;2023-03-01T07:20:48;101588.78;;;7.29;52.30
75497;BME280;64074;47.540;19.072;2023-03-01T07:23:51;101579.38;;;7.31;51.98
75497;BME280;64074;47.540;19.072;2023-03-01T07:26:54;101577.84;;;7.35;52.81
75497;BME280;64074;47.540;19.072;2023-03-01T07:29:57;101571.97;;;7.55;52.50
75497;BME280;64074;47.540;19.072;2023-03-01T07:33:00;101572.59;;;7.29;52.61
75497;BME280;64074;47.540;19.072;2023-03-01T07:36:07;101579.53;;;7.25;52.58
75497;BME280;64074;47.540;19.072;2023-03-01T07:39:15;101582.25;;;7.41;52.45
75497;BME280;64074;47.540;19.072;2023-03-01T07:42:22;101574.84;;;7.49;52.92
75497;BME280;64074;47.540;19.072;2023-03-01T07:45:25;101569.44;;;7.49;52.46
75497;BME280;64074;47.540;19.072;2023-03-01T07:48:30;101573.38;;;7.58;52.36
75497;BME280;64074;47.540;19.072;2023-03-01T07:51:45;101568.13;;;7.85;50.90
75497;BME280;64074;47.540;19.072;2023-03-01T07:54:58;101562.97;;;7.66;52.22
75497;BME280;64074;47.540;19.072;2023-03-01T07:58:01;101553.91;;;7.72;52.32
75497;BME280;64074;47.540;19.072;2023-03-01T08:01:06;101553.34;;;7.70;51.64
75497;BME280;64074;47.540;19.072;2023-03-01T08:04:10;101556.53;;;7.51;51.88
75497;BME280;64074;47.540;19.072;2023-03-01T08:07:14;101549.00;;;7.69;51.75
75497;BME280;64074;47.540;19.072;2023-03-01T08:10:18;101551.72;;;7.69;51.37
75497;BME280;64074;47.540;19.072;2023-03-01T08:13:26;101550.72;;;7.59;51.83
75497;BME280;64074;47.540;19.072;2023-03-01T08:16:38;101554.31;;;7.81;50.92
75497;BME280;64074;47.540;19.072;2023-03-01T08:19:45;101540.47;;;7.94;50.15
75497;BME280;64074;47.540;19.072;2023-03-01T08:22:48;101545.28;;;7.92;50.01
75497;BME280;64074;47.540;19.072;2023-03-01T08:25:51;101542.75;;;8.02;50.01
75497;BME280;64074;47.540;19.072;2023-03-01T08:28:55;101540.41;;;8.11;49.85
75497;BME280;64074;47.540;19.072;2023-03-01T08:31:59;101546.53;;;8.23;49.33
75497;BME280;64074;47.540;19.072;2023-03-01T08:35:03;101538.25;;;8.30;49.48
75497;BME280;64074;47.540;19.072;2023-03-01T08:38:06;101532.56;;;8.10;49.49
75497;BME280;64074;47.540;19.072;2023-03-01T08:41:10;101533.66;;;8.30;49.66
75497;BME280;64074;47.540;19.072;2023-03-01T08:44:14;101526.47;;;8.36;49.31
75497;BME280;64074;47.540;19.072;2023-03-01T08:47:36;101537.66;;;8.45;48.12
75497;BME280;64074;47.540;19.072;2023-03-01T08:50:46;101524.81;;;8.35;48.41
75497;BME280;64074;47.540;19.072;2023-03-01T08:54:01;101523.34;;;8.27;48.54
75497;BME280;64074;47.540;19.072;2023-03-01T08:57:04;101519.94;;;7.93;49.60
75497;BME280;64074;47.540;19.072;2023-03-01T09:00:07;101515.66;;;8.58;48.79
75497;BME280;64074;47.540;19.072;2023-03-01T09:03:12;101510.47;;;8.78;48.33
75497;BME280;64074;47.540;19.072;2023-03-01T09:06:16;101507.25;;;8.81;48.14
75497;BME280;64074;47.540;19.072;2023-03-01T09:09:20;101516.78;;;8.89;47.50
75497;BME280;64074;47.540;19.072;2023-03-01T09:12:23;101517.03;;;9.14;47.61
75497;BME280;64074;47.540;19.072;2023-03-01T09:15:27;101507.38;;;9.55;45.84
75497;BME280;64074;47.540;19.072;2023-03-01T09:18:31;101498.56;;;9.38;46.30
75497;BME280;64074;47.540;19.072;2023-03-01T09:21:35;101493.59;;;8.93;47.19
75497;BME280;64074;47.540;19.072;2023-03-01T09:24:42;101505.03;;;9.00;47.59
75497;BME280;64074;47.540;19.072;2023-03-01T09:27:46;101485.66;;;9.13;46.97
75497;BME280;64074;47.540;19.072;2023-03-01T09:30:53;101484.16;;;8.96;47.38
75497;BME280;64074;47.540;19.072;2023-03-01T09:34:15;101490.38;;;8.96;48.40
75497;BME280;64074;47.540;19.072;2023-03-01T09:37:48;101478.78;;;9.01;47.48
75497;BME280;64074;47.540;19.072;2023-03-01T09:41:08;101477.56;;;8.59;47.97
75497;BME280;64074;47.540;19.072;2023-03-01T09:44:40;101470.50;;;8.85;47.67
75497;BME280;64074;47.540;19.072;2023-03-01T09:47:48;101467.41;;;8.99;47.44
75497;BME280;64074;47.540;19.072;2023-03-01T09:50:54;101464.28;;;9.17;47.25
75497;BME280;64074;47.540;19.072;2023-03-01T09:53:58;101459.19;;;8.88;47.54
75497;BME280;64074;47.540;19.072;2023-03-01T09:57:24;101456.50;;;9.20;47.41
75497;BME280;64074;47.540;19.072;2023-03-01T10:00:43;101454.63;;;9.21;47.17
75497;BME280;64074;47.540;19.072;2023-03-01T10:10:31;101447.25;;;9.48;46.85
75497;BME280;64074;47.540;19.072;2023-03-01T10:13:49;101444.41;;;9.33;47.48
75497;BME280;64074;47.540;19.072;2023-03-01T10:17:04;101440.78;;;9.60;46.88
75497;BME280;64074;47.540;19.072;2023-03-01T10:23:28;101430.94;;;9.91;45.80
75497;BME280;64074;47.540;19.072;2023-03-01T10:27:05;101415.47;;;9.81;45.63
75497;BME280;64074;47.540;19.072;2023-03-01T10:30:38;101415.19;;;9.77;46.69
75497;BME280;64074;47.540;19.072;2023-03-01T10:33:56;101411.94;;;9.80;46.75
75497;BME280;64074;47.540;19.072;2023-03-01T10:41:13;101393.88;;;9.96;45.78
75497;BME280;64074;47.540;19.072;2023-03-01T10:44:44;101386.53;;;9.92;46.61
75497;BME280;64074;47.540;19.072;2023-03-01T10:48:13;101381.34;;;9.80;45.53
75497;BME280;64074;47.540;19.072;2023-03-01T10:51:18;101380.59;;;10.00;45.38
75497;BME280;64074;47.540;19.072;2023-03-01T10:54:28;101360.31;;;10.07;46.00
75497;BME280;64074;47.540;19.072;2023-03-01T10:57:37;101366.53;;;10.08;45.43
75497;BME280;64074;47.540;19.072;2023-03-01T11:00:47;101361.97;;;10.18;45.43
75497;BME280;64074;47.540;19.072;2023-03-01T11:04:18;101365.00;;;10.27;45.27
75497;BME280;64074;47.540;19.072;2023-03-01T11:07:23;101356.38;;;10.45;44.90
75497;BME280;64074;47.540;19.072;2023-03-01T11:10:40;101355.03;;;10.68;44.46
75497;BME280;64074;47.540;19.072;2023-03-01T11:13:53;101364.78;;;10.79;43.88
75497;BME280;64074;47.540;19.072;2023-03-01T11:17:13;101352.84;;;11.16;43.09
75497;BME280;64074;47.540;19.072;2023-03-01T11:20:33;101341.91;;;11.36;42.70
75497;BME280;64074;47.540;19.072;2023-03-01T11:23:39;101342.19;;;11.30;42.99
75497;BME280;64074;47.540;19.072;2023-03-01T11:26:52;101334.28;;;11.38;42.63
75497;BME280;64074;47.540;19.072;2023-03-01T11:30:20;101327.84;;;11.14;43.38
75497;BME280;64074;47.540;19.072;2023-03-01T11:33:58;101340.09;;;10.71;44.57
75497;BME280;64074;47.540;19.072;2023-03-01T11:37:10;101331.13;;;11.06;43.44
75497;BME280;64074;47.540;19.072;2023-03-01T11:40:33;101332.19;;;11.15;43.97
75497;BME280;64074;47.540;19.072;2023-03-01T11:50:47;101319.56;;;11.65;42.55
75497;BME280;64074;47.540;19.072;2023-03-01T11:54:18;101315.53;;;12.12;41.90
75497;BME280;64074;47.540;19.072;2023-03-01T12:11:44;101301.72;;;12.76;40.01
75497;BME280;64074;47.540;19.072;2023-03-01T12:35:21;101269.84;;;13.06;40.07
75497;BME280;64074;47.540;19.072;2023-03-01T12:38:41;101267.03;;;12.87;39.82
75497;BME280;64074;47.540;19.072;2023-03-01T12:46:21;101257.22;;;12.91;39.97
75497;BME280;64074;47.540;19.072;2023-03-01T12:53:01;101245.81;;;13.37;39.79
75497;BME280;64074;47.540;19.072;2023-03-01T12:56:10;101242.75;;;13.62;39.14
75497;BME280;64074;47.540;19.072;2023-03-01T12:59:28;101253.97;;;13.18;40.13
75497;BME280;64074;47.540;19.072;2023-03-01T13:06:29;101232.69;;;14.52;37.57
75497;BME280;64074;47.540;19.072;2023-03-01T13:13:36;101235.19;;;14.15;38.45
75497;BME280;64074;47.540;19.072;2023-03-01T13:16:41;101232.25;;;13.74;39.71
75497;BME280;64074;47.540;19.072;2023-03-01T13:19:57;101232.25;;;13.74;39.69
75497;BME280;64074;47.540;19.072;2023-03-01T13:23:07;101241.16;;;13.13;40.93
75497;BME280;64074;47.540;19.072;2023-03-01T13:26:17;101230.56;;;13.36;40.99
75497;BME280;64074;47.540;19.072;2023-03-01T13:29:47;101203.69;;;13.05;41.62
75497;BME280;64074;47.540;19.072;2023-03-01T13:39:40;101205.75;;;13.13;41.75
75497;BME280;64074;47.540;19.072;2023-03-01T13:42:45;101198.91;;;13.21;41.57
75497;BME280;64074;47.540;19.072;2023-03-01T13:46:18;101205.53;;;13.34;41.13
75497;BME280;64074;47.540;19.072;2023-03-01T13:49:26;101199.66;;;13.27;40.80
75497;BME280;64074;47.540;19.072;2023-03-01T13:52:56;101188.31;;;13.19;41.04
75497;BME280;64074;47.540;19.072;2023-03-01T13:56:26;101186.34;;;13.25;41.18
75497;BME280;64074;47.540;19.072;2023-03-01T13:59:47;101179.19;;;13.29;40.94
75497;BME280;64074;47.540;19.072;2023-03-01T14:06:24;101170.69;;;12.64;41.78
75497;BME280;64074;47.540;19.072;2023-03-01T14:09:29;101174.84;;;13.04;41.48
75497;BME280;64074;47.540;19.072;2023-03-01T14:16:18;101163.66;;;13.06;41.73
75497;BME280;64074;47.540;19.072;2023-03-01T14:19:28;101153.59;;;13.06;41.57
75497;BME280;64074;47.540;19.072;2023-03-01T14:22:36;101149.94;;;13.16;41.95
75497;BME280;64074;47.540;19.072;2023-03-01T14:25:47;101156.97;;;13.22;41.61
75497;BME280;64074;47.540;19.072;2023-03-01T14:28:52;101154.03;;;13.18;42.10
75497;BME280;64074;47.540;19.072;2023-03-01T14:32:09;101151.88;;;12.91;42.47
75497;BME280;64074;47.540;19.072;2023-03-01T14:35:24;101140.94;;;12.73;42.43
75497;BME280;64074;47.540;19.072;2023-03-01T14:38:43;101138.78;;;12.93;41.70
75497;BME280;64074;47.540;19.072;2023-03-01T14:41:48;101133.50;;;13.02;42.16
75497;BME280;64074;47.540;19.072;2023-03-01T14:44:52;101126.94;;;13.03;42.05
75497;BME280;64074;47.540;19.072;2023-03-01T14:48:00;101129.28;;;12.91;42.48
75497;BME280;64074;47.540;19.072;2023-03-01T14:51:06;101125.41;;;12.97;42.10
75497;BME280;64074;47.540;19.072;2023-03-01T14:54:41;101119.16;;;12.73;43.14
75497;BME280;64074;47.540;19.072;2023-03-01T14:57:50;101119.25;;;12.86;42.72
75497;BME280;64074;47.540;19.072;2023-03-01T15:00:59;101122.94;;;12.77;42.21
75497;BME280;64074;47.540;19.072;2023-03-01T15:04:02;101115.00;;;12.80;42.99
75497;BME280;64074;47.540;19.072;2023-03-01T15:07:12;101112.78;;;12.82;42.71
75497;BME280;64074;47.540;19.072;2023-03-01T15:10:29;101113.03;;;12.62;43.44
75497;BME280;64074;47.540;19.072;2023-03-01T15:13:35;101109.69;;;12.70;43.11
75497;BME280;64074;47.540;19.072;2023-03-01T15:16:39;101119.28;;;12.62;43.22
75497;BME280;64074;47.540;19.072;2023-03-01T15:19:45;101114.63;;;12.63;43.38
75497;BME280;64074;47.540;19.072;2023-03-01T15:22:48;101117.09;;;12.65;43.35
75497;BME280;64074;47.540;19.072;2023-03-01T15:25:53;101121.44;;;12.66;43.16
75497;BME280;64074;47.540;19.072;2023-03-01T15:29:00;101117.50;;;12.53;43.65
75497;BME280;64074;47.540;19.072;2023-03-01T15:32:06;101121.16;;;12.38;43.68
75497;BME280;64074;47.540;19.072;2023-03-01T15:35:42;101107.56;;;12.38;43.80
75497;BME280;64074;47.540;19.072;2023-03-01T15:38:56;101114.13;;;12.08;44.59
75497;BME280;64074;47.540;19.072;2023-03-01T15:42:01;101116.44;;;12.25;43.41
75497;BME280;64074;47.540;19.072;2023-03-01T15:45:21;101121.00;;;12.29;44.39
75497;BME280;64074;47.540;19.072;2023-03-01T15:48:24;101122.38;;;12.27;44.02
75497;BME280;64074;47.540;19.072;2023-03-01T15:51:36;101118.69;;;12.18;44.00
75497;BME280;64074;47.540;19.072;2023-03-01T15:54:40;101117.13;;;12.07;44.29
75497;BME280;64074;47.540;19.072;2023-03-01T15:57:45;101114.63;;;11.81;44.85
75497;BME280;64074;47.540;19.072;2023-03-01T16:00:50;101116.72;;;11.89;44.64
75497;BME280;64074;47.540;19.072;2023-03-01T16:04:03;101120.00;;;11.91;45.40
75497;BME280;64074;47.540;19.072;2023-03-01T16:07:06;101119.00;;;11.77;45.36
75497;BME280;64074;47.540;19.072;2023-03-01T16:10:10;101120.22;;;11.56;45.68
75497;BME280;64074;47.540;19.072;2023-03-01T16:13:16;101125.41;;;11.52;45.54
75497;BME280;64074;47.540;19.072;2023-03-01T16:16:20;101123.03;;;11.46;45.77
75497;BME280;64074;47.540;19.072;2023-03-01T16:19:24;101127.94;;;11.38;46.42
75497;BME280;64074;47.540;19.072;2023-03-01T16:22:27;101131.50;;;11.34;46.34
75497;BME280;64074;47.540;19.072;2023-03-01T16:25:32;101126.44;;;11.22;46.94
75497;BME280;64074;47.540;19.072;2023-03-01T16:28:35;101133.25;;;11.09;47.74
75497;BME280;64074;47.540;19.072;2023-03-01T16:31:38;101137.38;;;11.02;47.29
75497;BME280;64074;47.540;19.072;2023-03-01T16:34:41;101138.25;;;10.87;48.08
75497;BME280;64074;47.540;19.072;2023-03-01T16:37:44;101138.00;;;10.84;47.94
75497;BME280;64074;47.540;19.072;2023-03-01T16:40:48;101142.94;;;10.71;48.51
75497;BME280;64074;47.540;19.072;2023-03-01T16:43:55;101149.19;;;10.62;48.56
75497;BME280;64074;47.540;19.072;2023-03-01T16:46:59;101151.34;;;10.60;48.44
75497;BME280;64074;47.540;19.072;2023-03-01T16:50:03;101150.81;;;10.63;48.77
75497;BME280;64074;47.540;19.072;2023-03-01T16:53:06;101156.25;;;10.58;48.19
75497;BME280;64074;47.540;19.072;2023-03-01T16:56:11;101159.25;;;10.46;48.43
75497;BME280;64074;47.540;19.072;2023-03-01T16:59:14;101156.84;;;10.29;49.73
75497;BME280;64074;47.540;19.072;2023-03-01T17:02:17;101160.38;;;10.25;49.31
75497;BME280;64074;47.540;19.072;2023-03-01T17:05:22;101166.34;;;10.22;49.77
75497;BME280;64074;47.540;19.072;2023-03-01T17:08:26;101166.56;;;10.15;50.12
75497;BME280;64074;47.540;19.072;2023-03-01T17:11:30;101161.97;;;10.05;50.26
75497;BME280;64074;47.540;19.072;2023-03-01T17:14:34;101157.66;;;9.99;50.23
75497;BME280;64074;47.540;19.072;2023-03-01T17:17:38;101159.81;;;9.92;49.95
75497;BME280;64074;47.540;19.072;2023-03-01T17:20:42;101161.69;;;9.86;50.13
75497;BME280;64074;47.540;19.072;2023-03-01T17:23:47;101168.19;;;9.80;49.71
75497;BME280;64074;47.540;19.072;2023-03-01T17:26:51;101173.06;;;9.78;50.23
75497;BME280;64074;47.540;19.072;2023-03-01T17:29:55;101170.63;;;9.72;50.74
75497;BME280;64074;47.540;19.072;2023-03-01T17:32:58;101165.19;;;9.62;51.02
75497;BME280;64074;47.540;19.072;2023-03-01T17:36:02;101167.88;;;9.51;51.79
75497;BME280;64074;47.540;19.072;2023-03-01T17:39:06;101169.50;;;9.47;52.09
75497;BME280;64074;47.540;19.072;2023-03-01T17:42:10;101163.56;;;9.55;52.62
75497;BME280;64074;47.540;19.072;2023-03-01T17:45:13;101163.56;;;9.50;52.45
75497;BME280;64074;47.540;19.072;2023-03-01T17:48:16;101171.94;;;9.59;51.65
75497;BME280;64074;47.540;19.072;2023-03-01T17:51:19;101166.81;;;9.63;52.06